sensor_id;sensor_type;location;lat;lon;timestamp;P1;durP1;ratioP1;P2;durP2;ratioP2
11655;SDS011;5884;43.618;1.438;2023-07-31T04:45:27;10.87;;;4.87;;
11655;SDS011;5884;43.618;1.438;2023-07-31T04:47:54;9.63;;;4.17;;
11655;SDS011;5884;43.618;1.438;2023-07-31T04:50:22;10.00;;;4.77;;
11655;SDS011;5884;43.618;1.438;2023-07-31T04:52:49;9.77;;;5.07;;
11655;SDS011;5884;43.618;1.438;2023-07-31T04:55:16;11.10;;;4.43;;
11655;SDS011;5884;43.618;1.438;2023-07-31T04:57:44;9.73;;;4.43;;
11655;SDS011;5884;43.618;1.438;2023-07-31T05:00:11;10.83;;;4.80;;
11655;SDS011;5884;43.618;1.438;2023-07-31T05:02:40;11.63;;;4.20;;
11655;SDS011;5884;43.618;1.438;2023-07-31T05:05:08;11.33;;;4.13;;
11655;SDS011;5884;43.618;1.438;2023-07-31T05:07:35;7.43;;;4.13;;
11655;SDS011;5884;43.618;1.438;2023-07-31T05:10:02;10.57;;;4.27;;
11655;SDS011;5884;43.618;1.438;2023-07-31T05:12:30;9.27;;;4.63;;
11655;SDS011;5884;43.618;1.438;2023-07-31T05:14:58;7.93;;;4.57;;
11655;SDS011;5884;43.618;1.438;2023-07-31T05:17:25;11.20;;;4.57;;
11655;SDS011;5884;43.618;1.438;2023-07-31T05:19:54;11.07;;;4.83;;
11655;SDS011;5884;43.618;1.438;2023-07-31T05:22:21;8.90;;;4.47;;
11655;SDS011;5884;43.618;1.438;2023-07-31T05:24:48;10.80;;;4.43;;
11655;SDS011;5884;43.618;1.438;2023-07-31T05:27:15;12.13;;;4.07;;
11655;SDS011;5884;43.618;1.438;2023-07-31T05:29:44;7.83;;;4.30;;
11655;SDS011;5884;43.618;1.438;2023-07-31T05:32:11;9.93;;;4.50;;
11655;SDS011;5884;43.618;1.438;2023-07-31T05:34:39;8.57;;;4.57;;
11655;SDS011;5884;43.618;1.438;2023-07-31T05:37:10;10.50;;;4.03;;
11655;SDS011;5884;43.618;1.438;2023-07-31T05:39:37;13.63;;;4.17;;
11655;SDS011;5884;43.618;1.438;2023-07-31T05:42:05;10.20;;;4.27;;
11655;SDS011;5884;43.618;1.438;2023-07-31T05:44:32;9.03;;;4.47;;
11655;SDS011;5884;43.618;1.438;2023-07-31T05:47:00;11.40;;;4.50;;
11655;SDS011;5884;43.618;1.438;2023-07-31T05:49:27;9.10;;;4.03;;
11655;SDS011;5884;43.618;1.438;2023-07-31T05:51:54;10.77;;;4.63;;
11655;SDS011;5884;43.618;1.438;2023-07-31T05:54:23;13.00;;;4.63;;
11655;SDS011;5884;43.618;1.438;2023-07-31T05:56:50;10.27;;;4.00;;
11655;SDS011;5884;43.618;1.438;2023-07-31T05:59:18;11.97;;;4.37;;
11655;SDS011;5884;43.618;1.438;2023-07-31T06:01:45;8.67;;;4.47;;
11655;SDS011;5884;43.618;1.438;2023-07-31T06:04:12;10.53;;;4.43;;
11655;SDS011;5884;43.618;1.438;2023-07-31T06:06:39;12.37;;;4.60;;
11655;SDS011;5884;43.618;1.438;2023-07-31T06:09:07;12.90;;;4.73;;
11655;SDS011;5884;43.618;1.438;2023-07-31T06:11:35;16.53;;;4.63;;
11655;SDS011;5884;43.618;1.438;2023-07-31T06:14:03;11.37;;;4.30;;
11655;SDS011;5884;43.618;1.438;2023-07-31T06:16:30;10.97;;;4.50;;
11655;SDS011;5884;43.618;1.438;2023-07-31T06:18:57;11.43;;;4.37;;
11655;SDS011;5884;43.618;1.438;2023-07-31T06:21:24;21.27;;;5.87;;
11655;SDS011;5884;43.618;1.438;2023-07-31T06:23:52;21.23;;;6.10;;
11655;SDS011;5884;43.618;1.438;2023-07-31T06:26:19;16.50;;;4.70;;
11655;SDS011;5884;43.618;1.438;2023-07-31T06:28:48;16.53;;;5.10;;
11655;SDS011;5884;43.618;1.438;2023-07-31T06:31:15;10.00;;;5.70;;
11655;SDS011;5884;43.618;1.438;2023-07-31T06:33:45;11.63;;;4.70;;
11655;SDS011;5884;43.618;1.438;2023-07-31T06:36:12;11.43;;;4.87;;
11655;SDS011;5884;43.618;1.438;2023-07-31T06:38:40;14.57;;;4.30;;
11655;SDS011;5884;43.618;1.438;2023-07-31T06:41:07;14.40;;;4.67;;
11655;SDS011;5884;43.618;1.438;2023-07-31T06:43:35;9.97;;;4.30;;
11655;SDS011;5884;43.618;1.438;2023-07-31T06:46:05;13.93;;;4.40;;
11655;SDS011;5884;43.618;1.438;2023-07-31T06:48:34;15.40;;;4.60;;
11655;SDS011;5884;43.618;1.438;2023-07-31T06:51:02;17.30;;;5.40;;
11655;SDS011;5884;43.618;1.438;2023-07-31T06:53:29;11.23;;;4.43;;
11655;SDS011;5884;43.618;1.438;2023-07-31T06:55:56;8.40;;;4.63;;
11655;SDS011;5884;43.618;1.438;2023-07-31T06:58:24;9.40;;;3.97;;
11655;SDS011;5884;43.618;1.438;2023-07-31T07:00:51;13.37;;;4.23;;
11655;SDS011;5884;43.618;1.438;2023-07-31T07:03:20;13.40;;;4.10;;
11655;SDS011;5884;43.618;1.438;2023-07-31T07:05:47;8.17;;;4.13;;
11655;SDS011;5884;43.618;1.438;2023-07-31T07:08:14;17.03;;;4.57;;
11655;SDS011;5884;43.618;1.438;2023-07-31T07:10:42;24.43;;;5.67;;
11655;SDS011;5884;43.618;1.438;2023-07-31T07:13:09;18.17;;;5.00;;
11655;SDS011;5884;43.618;1.438;2023-07-31T07:15:37;9.80;;;4.83;;
11655;SDS011;5884;43.618;1.438;2023-07-31T07:18:05;9.87;;;4.30;;
11655;SDS011;5884;43.618;1.438;2023-07-31T07:20:33;12.33;;;5.13;;
11655;SDS011;5884;43.618;1.438;2023-07-31T07:23:00;11.00;;;4.67;;
11655;SDS011;5884;43.618;1.438;2023-07-31T07:25:28;11.80;;;4.43;;
11655;SDS011;5884;43.618;1.438;2023-07-31T07:27:55;11.73;;;4.23;;
11655;SDS011;5884;43.618;1.438;2023-07-31T07:30:22;10.40;;;4.93;;
11655;SDS011;5884;43.618;1.438;2023-07-31T07:32:50;10.07;;;3.97;;
11655;SDS011;5884;43.618;1.438;2023-07-31T07:35:17;15.10;;;4.57;;
11655;SDS011;5884;43.618;1.438;2023-07-31T07:37:46;11.43;;;4.50;;
11655;SDS011;5884;43.618;1.438;2023-07-31T07:40:16;12.07;;;4.50;;
11655;SDS011;5884;43.618;1.438;2023-07-31T07:42:43;12.13;;;4.13;;
11655;SDS011;5884;43.618;1.438;2023-07-31T07:45:10;10.00;;;4.50;;
11655;SDS011;5884;43.618;1.438;2023-07-31T07:47:38;12.33;;;4.40;;
11655;SDS011;5884;43.618;1.438;2023-07-31T07:50:07;14.07;;;4.50;;
11655;SDS011;5884;43.618;1.438;2023-07-31T07:52:35;14.47;;;4.37;;
11655;SDS011;5884;43.618;1.438;2023-07-31T07:55:04;9.40;;;4.33;;
11655;SDS011;5884;43.618;1.438;2023-07-31T07:57:32;11.10;;;4.87;;
11655;SDS011;5884;43.618;1.438;2023-07-31T07:59:59;11.57;;;4.83;;
11655;SDS011;5884;43.618;1.438;2023-07-31T08:02:27;11.57;;;4.20;;
11655;SDS011;5884;43.618;1.438;2023-07-31T08:04:54;10.43;;;4.20;;
11655;SDS011;5884;43.618;1.438;2023-07-31T08:07:21;11.47;;;4.37;;
11655;SDS011;5884;43.618;1.438;2023-07-31T08:09:49;10.30;;;4.23;;
11655;SDS011;5884;43.618;1.438;2023-07-31T08:12:18;12.17;;;3.90;;
11655;SDS011;5884;43.618;1.438;2023-07-31T08:14:45;10.03;;;3.87;;
11655;SDS011;5884;43.618;1.438;2023-07-31T08:17:13;9.40;;;4.07;;
11655;SDS011;5884;43.618;1.438;2023-07-31T08:19:40;10.83;;;3.80;;
11655;SDS011;5884;43.618;1.438;2023-07-31T08:22:07;13.80;;;4.70;;
11655;SDS011;5884;43.618;1.438;2023-07-31T08:24:34;11.23;;;4.43;;
11655;SDS011;5884;43.618;1.438;2023-07-31T08:27:02;7.77;;;3.83;;
11655;SDS011;5884;43.618;1.438;2023-07-31T08:29:31;10.80;;;3.80;;
11655;SDS011;5884;43.618;1.438;2023-07-31T08:31:58;9.73;;;4.03;;
11655;SDS011;5884;43.618;1.438;2023-07-31T08:34:25;14.70;;;4.30;;
11655;SDS011;5884;43.618;1.438;2023-07-31T08:36:52;8.90;;;3.80;;
11655;SDS011;5884;43.618;1.438;2023-07-31T08:39:20;10.13;;;3.97;;
11655;SDS011;5884;43.618;1.438;2023-07-31T08:41:47;10.90;;;4.20;;
11655;SDS011;5884;43.618;1.438;2023-07-31T08:44:14;9.80;;;3.70;;
11655;SDS011;5884;43.618;1.438;2023-07-31T08:46:45;13.17;;;4.10;;
11655;SDS011;5884;43.618;1.438;2023-07-31T08:49:14;10.73;;;4.00;;
11655;SDS011;5884;43.618;1.438;2023-07-31T08:51:43;17.17;;;3.57;;
11655;SDS011;5884;43.618;1.438;2023-07-31T08:54:14;10.30;;;3.63;;
11655;SDS011;5884;43.618;1.438;2023-07-31T08:56:41;6.67;;;3.30;;
11655;SDS011;5884;43.618;1.438;2023-07-31T08:59:09;8.03;;;3.50;;
11655;SDS011;5884;43.618;1.438;2023-07-31T09:01:40;12.20;;;3.60;;
11655;SDS011;5884;43.618;1.438;2023-07-31T09:04:13;8.40;;;3.73;;
11655;SDS011;5884;43.618;1.438;2023-07-31T09:06:43;8.57;;;3.00;;
11655;SDS011;5884;43.618;1.438;2023-07-31T09:09:11;6.23;;;3.23;;
11655;SDS011;5884;43.618;1.438;2023-07-31T09:11:38;10.33;;;3.40;;
11655;SDS011;5884;43.618;1.438;2023-07-31T09:14:08;8.83;;;2.47;;
11655;SDS011;5884;43.618;1.438;2023-07-31T09:16:43;3.93;;;2.30;;
11655;SDS011;5884;43.618;1.438;2023-07-31T09:19:27;4.70;;;2.70;;
11655;SDS011;5884;43.618;1.438;2023-07-31T09:21:56;6.13;;;2.80;;
11655;SDS011;5884;43.618;1.438;2023-07-31T09:24:26;4.70;;;2.70;;
11655;SDS011;5884;43.618;1.438;2023-07-31T09:26:55;8.00;;;2.73;;
11655;SDS011;5884;43.618;1.438;2023-07-31T09:29:25;7.27;;;2.50;;
11655;SDS011;5884;43.618;1.438;2023-07-31T09:31:54;4.13;;;2.83;;
11655;SDS011;5884;43.618;1.438;2023-07-31T09:34:28;6.40;;;2.80;;
11655;SDS011;5884;43.618;1.438;2023-07-31T09:36:57;6.13;;;3.07;;
11655;SDS011;5884;43.618;1.438;2023-07-31T09:39:29;4.93;;;2.53;;
11655;SDS011;5884;43.618;1.438;2023-07-31T09:41:57;7.60;;;3.20;;
11655;SDS011;5884;43.618;1.438;2023-07-31T09:44:36;5.43;;;2.80;;
11655;SDS011;5884;43.618;1.438;2023-07-31T09:47:07;6.97;;;3.07;;
11655;SDS011;5884;43.618;1.438;2023-07-31T09:49:49;5.93;;;2.97;;
11655;SDS011;5884;43.618;1.438;2023-07-31T09:52:16;6.47;;;3.57;;
11655;SDS011;5884;43.618;1.438;2023-07-31T09:54:43;7.37;;;2.90;;
11655;SDS011;5884;43.618;1.438;2023-07-31T09:57:11;4.77;;;2.97;;
11655;SDS011;5884;43.618;1.438;2023-07-31T09:59:38;7.33;;;3.23;;
11655;SDS011;5884;43.618;1.438;2023-07-31T10:02:07;6.00;;;2.73;;
11655;SDS011;5884;43.618;1.438;2023-07-31T10:04:41;7.57;;;2.70;;
11655;SDS011;5884;43.618;1.438;2023-07-31T10:07:12;6.20;;;2.93;;
11655;SDS011;5884;43.618;1.438;2023-07-31T10:09:40;5.80;;;3.10;;
11655;SDS011;5884;43.618;1.438;2023-07-31T10:12:08;4.03;;;2.33;;
11655;SDS011;5884;43.618;1.438;2023-07-31T10:14:38;5.90;;;2.70;;
11655;SDS011;5884;43.618;1.438;2023-07-31T10:17:08;6.20;;;2.87;;
11655;SDS011;5884;43.618;1.438;2023-07-31T10:19:36;5.23;;;2.63;;
11655;SDS011;5884;43.618;1.438;2023-07-31T10:22:03;6.27;;;3.20;;
11655;SDS011;5884;43.618;1.438;2023-07-31T10:24:32;4.17;;;2.70;;
11655;SDS011;5884;43.618;1.438;2023-07-31T10:27:00;6.07;;;2.90;;
11655;SDS011;5884;43.618;1.438;2023-07-31T10:29:29;8.20;;;3.10;;
11655;SDS011;5884;43.618;1.438;2023-07-31T10:31:57;8.63;;;3.37;;
11655;SDS011;5884;43.618;1.438;2023-07-31T10:34:27;5.60;;;2.67;;
11655;SDS011;5884;43.618;1.438;2023-07-31T10:39:54;4.07;;;2.33;;
11655;SDS011;5884;43.618;1.438;2023-07-31T10:42:28;5.13;;;2.87;;
11655;SDS011;5884;43.618;1.438;2023-07-31T10:45:01;9.70;;;3.23;;
11655;SDS011;5884;43.618;1.438;2023-07-31T10:47:30;6.03;;;3.10;;
11655;SDS011;5884;43.618;1.438;2023-07-31T10:50:20;6.37;;;3.10;;
11655;SDS011;5884;43.618;1.438;2023-07-31T10:52:49;6.60;;;2.80;;
11655;SDS011;5884;43.618;1.438;2023-07-31T10:55:25;6.80;;;3.27;;
11655;SDS011;5884;43.618;1.438;2023-07-31T10:57:56;7.53;;;2.83;;
11655;SDS011;5884;43.618;1.438;2023-07-31T11:00:25;6.73;;;2.90;;
11655;SDS011;5884;43.618;1.438;2023-07-31T11:02:58;4.50;;;2.80;;
11655;SDS011;5884;43.618;1.438;2023-07-31T11:05:50;6.50;;;3.20;;
11655;SDS011;5884;43.618;1.438;2023-07-31T11:08:20;6.30;;;3.10;;
11655;SDS011;5884;43.618;1.438;2023-07-31T11:10:50;5.87;;;3.27;;
11655;SDS011;5884;43.618;1.438;2023-07-31T11:13:32;8.67;;;2.87;;
11655;SDS011;5884;43.618;1.438;2023-07-31T11:16:07;7.23;;;2.80;;
11655;SDS011;5884;43.618;1.438;2023-07-31T11:18:34;4.57;;;2.90;;
11655;SDS011;5884;43.618;1.438;2023-07-31T11:21:04;8.07;;;3.17;;
11655;SDS011;5884;43.618;1.438;2023-07-31T11:23:31;7.93;;;3.17;;
11655;SDS011;5884;43.618;1.438;2023-07-31T11:25:59;6.23;;;2.87;;
11655;SDS011;5884;43.618;1.438;2023-07-31T11:28:30;6.60;;;3.20;;
11655;SDS011;5884;43.618;1.438;2023-07-31T11:31:00;7.00;;;3.13;;
11655;SDS011;5884;43.618;1.438;2023-07-31T11:33:28;6.33;;;2.80;;
11655;SDS011;5884;43.618;1.438;2023-07-31T11:35:55;6.17;;;3.03;;
11655;SDS011;5884;43.618;1.438;2023-07-31T11:38:25;10.13;;;3.07;;
11655;SDS011;5884;43.618;1.438;2023-07-31T11:40:54;5.63;;;2.53;;
11655;SDS011;5884;43.618;1.438;2023-07-31T11:43:23;6.70;;;3.70;;
11655;SDS011;5884;43.618;1.438;2023-07-31T11:45:52;6.03;;;3.07;;
11655;SDS011;5884;43.618;1.438;2023-07-31T11:48:22;5.67;;;2.80;;
11655;SDS011;5884;43.618;1.438;2023-07-31T11:50:52;6.47;;;3.17;;
11655;SDS011;5884;43.618;1.438;2023-07-31T11:53:23;10.30;;;3.30;;
11655;SDS011;5884;43.618;1.438;2023-07-31T11:56:04;6.37;;;3.20;;
11655;SDS011;5884;43.618;1.438;2023-07-31T11:58:34;6.97;;;3.00;;
11655;SDS011;5884;43.618;1.438;2023-07-31T12:01:03;7.20;;;3.00;;
11655;SDS011;5884;43.618;1.438;2023-07-31T12:03:31;8.57;;;3.53;;
11655;SDS011;5884;43.618;1.438;2023-07-31T12:06:00;5.97;;;2.93;;
11655;SDS011;5884;43.618;1.438;2023-07-31T12:08:29;8.77;;;3.23;;
11655;SDS011;5884;43.618;1.438;2023-07-31T12:11:02;6.00;;;3.20;;
11655;SDS011;5884;43.618;1.438;2023-07-31T12:13:31;6.33;;;3.53;;
11655;SDS011;5884;43.618;1.438;2023-07-31T12:16:00;4.40;;;2.90;;
11655;SDS011;5884;43.618;1.438;2023-07-31T12:18:30;6.83;;;3.00;;
11655;SDS011;5884;43.618;1.438;2023-07-31T12:21:02;6.10;;;2.83;;
11655;SDS011;5884;43.618;1.438;2023-07-31T12:23:33;6.80;;;2.60;;
11655;SDS011;5884;43.618;1.438;2023-07-31T12:26:02;5.73;;;2.63;;
11655;SDS011;5884;43.618;1.438;2023-07-31T12:28:35;9.33;;;2.80;;
11655;SDS011;5884;43.618;1.438;2023-07-31T12:31:04;4.90;;;2.73;;
11655;SDS011;5884;43.618;1.438;2023-07-31T12:33:31;4.67;;;2.73;;
11655;SDS011;5884;43.618;1.438;2023-07-31T12:36:01;4.77;;;2.77;;
11655;SDS011;5884;43.618;1.438;2023-07-31T12:38:30;6.77;;;2.60;;
11655;SDS011;5884;43.618;1.438;2023-07-31T12:40:59;6.73;;;2.90;;
11655;SDS011;5884;43.618;1.438;2023-07-31T12:43:26;4.67;;;2.60;;
11655;SDS011;5884;43.618;1.438;2023-07-31T12:45:53;4.43;;;2.63;;
11655;SDS011;5884;43.618;1.438;2023-07-31T12:48:22;5.43;;;2.40;;
11655;SDS011;5884;43.618;1.438;2023-07-31T12:50:49;3.87;;;2.77;;
11655;SDS011;5884;43.618;1.438;2023-07-31T12:53:18;6.23;;;2.90;;
11655;SDS011;5884;43.618;1.438;2023-07-31T12:55:46;7.33;;;2.80;;
11655;SDS011;5884;43.618;1.438;2023-07-31T12:58:14;6.93;;;3.00;;
11655;SDS011;5884;43.618;1.438;2023-07-31T13:00:41;4.80;;;2.50;;
11655;SDS011;5884;43.618;1.438;2023-07-31T13:03:08;5.23;;;3.13;;
11655;SDS011;5884;43.618;1.438;2023-07-31T13:05:36;6.10;;;3.10;;
11655;SDS011;5884;43.618;1.438;2023-07-31T13:08:03;7.73;;;2.97;;
11655;SDS011;5884;43.618;1.438;2023-07-31T13:10:30;5.83;;;3.00;;
11655;SDS011;5884;43.618;1.438;2023-07-31T13:12:59;5.57;;;2.57;;
11655;SDS011;5884;43.618;1.438;2023-07-31T13:15:26;5.40;;;2.77;;
11655;SDS011;5884;43.618;1.438;2023-07-31T13:17:53;3.72;;;2.47;;
11655;SDS011;5884;43.618;1.438;2023-07-31T13:20:21;6.57;;;2.87;;
11655;SDS011;5884;43.618;1.438;2023-07-31T13:22:48;5.30;;;2.70;;
11655;SDS011;5884;43.618;1.438;2023-07-31T13:25:15;5.85;;;2.92;;
11655;SDS011;5884;43.618;1.438;2023-07-31T13:27:43;3.90;;;2.53;;
11655;SDS011;5884;43.618;1.438;2023-07-31T13:30:12;5.30;;;2.90;;
11655;SDS011;5884;43.618;1.438;2023-07-31T13:32:39;7.53;;;3.30;;
11655;SDS011;5884;43.618;1.438;2023-07-31T13:35:07;3.28;;;2.63;;
11655;SDS011;5884;43.618;1.438;2023-07-31T13:37:36;3.97;;;2.90;;
11655;SDS011;5884;43.618;1.438;2023-07-31T13:40:04;5.60;;;2.53;;
11655;SDS011;5884;43.618;1.438;2023-07-31T13:42:32;6.28;;;2.65;;
11655;SDS011;5884;43.618;1.438;2023-07-31T13:44:59;5.68;;;2.72;;
11655;SDS011;5884;43.618;1.438;2023-07-31T13:47:28;5.95;;;3.00;;
11655;SDS011;5884;43.618;1.438;2023-07-31T13:49:56;5.07;;;2.60;;
11655;SDS011;5884;43.618;1.438;2023-07-31T13:52:23;5.22;;;2.70;;
11655;SDS011;5884;43.618;1.438;2023-07-31T13:54:50;6.07;;;2.80;;
11655;SDS011;5884;43.618;1.438;2023-07-31T13:57:17;7.22;;;3.38;;
11655;SDS011;5884;43.618;1.438;2023-07-31T13:59:45;5.28;;;2.95;;
11655;SDS011;5884;43.618;1.438;2023-07-31T14:02:12;5.13;;;2.80;;
11655;SDS011;5884;43.618;1.438;2023-07-31T14:04:41;3.80;;;2.75;;
11655;SDS011;5884;43.618;1.438;2023-07-31T14:07:08;6.22;;;2.75;;
11655;SDS011;5884;43.618;1.438;2023-07-31T14:09:36;5.93;;;3.00;;
11655;SDS011;5884;43.618;1.438;2023-07-31T14:12:03;5.55;;;3.17;;
11655;SDS011;5884;43.618;1.438;2023-07-31T14:14:32;5.78;;;3.10;;
11655;SDS011;5884;43.618;1.438;2023-07-31T14:17:00;5.65;;;3.22;;
11655;SDS011;5884;43.618;1.438;2023-07-31T14:19:27;4.50;;;2.85;;
11655;SDS011;5884;43.618;1.438;2023-07-31T14:21:57;5.82;;;3.22;;
11655;SDS011;5884;43.618;1.438;2023-07-31T14:24:25;4.75;;;3.25;;
11655;SDS011;5884;43.618;1.438;2023-07-31T14:26:52;6.28;;;3.20;;
11655;SDS011;5884;43.618;1.438;2023-07-31T14:29:19;6.85;;;3.10;;
11655;SDS011;5884;43.618;1.438;2023-07-31T14:31:47;4.50;;;3.05;;
11655;SDS011;5884;43.618;1.438;2023-07-31T14:34:14;4.00;;;3.00;;
11655;SDS011;5884;43.618;1.438;2023-07-31T14:36:41;4.32;;;2.97;;
11655;SDS011;5884;43.618;1.438;2023-07-31T14:39:11;4.13;;;3.20;;
11655;SDS011;5884;43.618;1.438;2023-07-31T14:41:38;5.63;;;3.42;;
11655;SDS011;5884;43.618;1.438;2023-07-31T14:44:05;4.05;;;3.10;;
11655;SDS011;5884;43.618;1.438;2023-07-31T14:46:32;8.65;;;3.50;;
11655;SDS011;5884;43.618;1.438;2023-07-31T14:49:00;5.63;;;3.05;;
11655;SDS011;5884;43.618;1.438;2023-07-31T14:51:27;6.60;;;3.75;;
11655;SDS011;5884;43.618;1.438;2023-07-31T14:53:54;5.97;;;3.63;;
11655;SDS011;5884;43.618;1.438;2023-07-31T14:56:23;7.60;;;3.47;;
11655;SDS011;5884;43.618;1.438;2023-07-31T14:58:51;4.15;;;2.97;;
11655;SDS011;5884;43.618;1.438;2023-07-31T15:01:19;9.00;;;3.75;;
11655;SDS011;5884;43.618;1.438;2023-07-31T15:03:46;5.53;;;3.47;;
11655;SDS011;5884;43.618;1.438;2023-07-31T15:06:13;5.93;;;3.67;;
11655;SDS011;5884;43.618;1.438;2023-07-31T15:08:41;5.72;;;3.60;;
11655;SDS011;5884;43.618;1.438;2023-07-31T15:11:09;4.95;;;3.20;;
11655;SDS011;5884;43.618;1.438;2023-07-31T15:13:38;6.55;;;3.60;;
11655;SDS011;5884;43.618;1.438;2023-07-31T15:16:05;7.13;;;3.60;;
11655;SDS011;5884;43.618;1.438;2023-07-31T15:18:32;6.55;;;4.05;;
11655;SDS011;5884;43.618;1.438;2023-07-31T15:20:59;5.97;;;3.97;;
11655;SDS011;5884;43.618;1.438;2023-07-31T15:23:27;5.63;;;3.60;;
11655;SDS011;5884;43.618;1.438;2023-07-31T15:25:54;5.93;;;3.60;;
11655;SDS011;5884;43.618;1.438;2023-07-31T15:28:22;6.68;;;3.72;;
11655;SDS011;5884;43.618;1.438;2023-07-31T15:30:50;5.97;;;3.25;;
11655;SDS011;5884;43.618;1.438;2023-07-31T15:33:18;6.72;;;3.50;;
11655;SDS011;5884;43.618;1.438;2023-07-31T15:35:45;7.07;;;3.88;;
11655;SDS011;5884;43.618;1.438;2023-07-31T15:38:12;5.57;;;3.95;;
11655;SDS011;5884;43.618;1.438;2023-07-31T15:40:39;5.43;;;3.63;;
11655;SDS011;5884;43.618;1.438;2023-07-31T15:43:07;7.80;;;3.63;;
11655;SDS011;5884;43.618;1.438;2023-07-31T15:45:34;4.60;;;3.63;;
11655;SDS011;5884;43.618;1.438;2023-07-31T15:48:03;5.18;;;3.83;;
11655;SDS011;5884;43.618;1.438;2023-07-31T15:50:31;7.53;;;4.03;;
11655;SDS011;5884;43.618;1.438;2023-07-31T15:52:58;7.72;;;3.75;;
11655;SDS011;5884;43.618;1.438;2023-07-31T15:55:25;7.38;;;3.72;;
11655;SDS011;5884;43.618;1.438;2023-07-31T15:57:53;4.97;;;3.33;;
11655;SDS011;5884;43.618;1.438;2023-07-31T16:00:20;5.40;;;3.83;;
11655;SDS011;5884;43.618;1.438;2023-07-31T16:02:47;6.65;;;4.00;;
11655;SDS011;5884;43.618;1.438;2023-07-31T16:05:17;5.85;;;3.92;;
11655;SDS011;5884;43.618;1.438;2023-07-31T16:07:44;6.38;;;4.00;;
11655;SDS011;5884;43.618;1.438;2023-07-31T16:10:11;8.15;;;4.70;;
11655;SDS011;5884;43.618;1.438;2023-07-31T16:12:39;6.95;;;3.67;;
11655;SDS011;5884;43.618;1.438;2023-07-31T16:15:06;9.02;;;4.10;;
11655;SDS011;5884;43.618;1.438;2023-07-31T16:17:35;7.32;;;3.80;;
11655;SDS011;5884;43.618;1.438;2023-07-31T16:20:02;5.03;;;3.65;;
11655;SDS011;5884;43.618;1.438;2023-07-31T16:25:01;6.70;;;3.90;;
11655;SDS011;5884;43.618;1.438;2023-07-31T16:27:28;7.00;;;4.30;;
11655;SDS011;5884;43.618;1.438;2023-07-31T16:29:56;7.30;;;3.83;;
11655;SDS011;5884;43.618;1.438;2023-07-31T16:32:25;7.40;;;4.25;;
11655;SDS011;5884;43.618;1.438;2023-07-31T16:34:53;8.98;;;3.70;;
11655;SDS011;5884;43.618;1.438;2023-07-31T16:37:20;9.15;;;4.10;;
11655;SDS011;5884;43.618;1.438;2023-07-31T16:39:49;10.30;;;4.30;;
11655;SDS011;5884;43.618;1.438;2023-07-31T16:42:17;8.43;;;3.72;;
11655;SDS011;5884;43.618;1.438;2023-07-31T16:44:44;5.47;;;4.00;;
11655;SDS011;5884;43.618;1.438;2023-07-31T16:47:12;6.80;;;3.70;;
11655;SDS011;5884;43.618;1.438;2023-07-31T16:49:39;6.90;;;4.35;;
11655;SDS011;5884;43.618;1.438;2023-07-31T16:52:07;5.40;;;3.95;;
11655;SDS011;5884;43.618;1.438;2023-07-31T16:54:34;9.80;;;4.03;;
11655;SDS011;5884;43.618;1.438;2023-07-31T16:57:03;6.50;;;4.30;;
11655;SDS011;5884;43.618;1.438;2023-07-31T16:59:31;7.47;;;4.25;;
11655;SDS011;5884;43.618;1.438;2023-07-31T17:01:58;7.47;;;4.10;;
11655;SDS011;5884;43.618;1.438;2023-07-31T17:04:26;10.20;;;4.65;;
11655;SDS011;5884;43.618;1.438;2023-07-31T17:06:55;6.22;;;4.57;;
11655;SDS011;5884;43.618;1.438;2023-07-31T17:09:23;9.57;;;4.50;;
11655;SDS011;5884;43.618;1.438;2023-07-31T17:11:50;7.90;;;4.25;;
11655;SDS011;5884;43.618;1.438;2023-07-31T17:14:19;7.85;;;5.15;;
11655;SDS011;5884;43.618;1.438;2023-07-31T17:16:46;6.32;;;4.72;;
11655;SDS011;5884;43.618;1.438;2023-07-31T17:19:14;6.90;;;4.57;;
11655;SDS011;5884;43.618;1.438;2023-07-31T17:21:41;10.75;;;4.53;;
11655;SDS011;5884;43.618;1.438;2023-07-31T17:24:08;7.38;;;4.63;;
11655;SDS011;5884;43.618;1.438;2023-07-31T17:26:35;6.35;;;5.10;;
11655;SDS011;5884;43.618;1.438;2023-07-31T17:29:03;10.93;;;4.82;;
11655;SDS011;5884;43.618;1.438;2023-07-31T17:31:31;7.18;;;4.35;;
11655;SDS011;5884;43.618;1.438;2023-07-31T17:33:59;7.22;;;4.30;;
11655;SDS011;5884;43.618;1.438;2023-07-31T17:36:27;8.02;;;4.72;;
11655;SDS011;5884;43.618;1.438;2023-07-31T17:38:54;8.18;;;4.68;;
11655;SDS011;5884;43.618;1.438;2023-07-31T17:41:21;7.63;;;5.13;;
11655;SDS011;5884;43.618;1.438;2023-07-31T17:43:49;9.40;;;5.05;;
11655;SDS011;5884;43.618;1.438;2023-07-31T17:46:16;6.35;;;4.57;;
11655;SDS011;5884;43.618;1.438;2023-07-31T17:48:45;7.38;;;4.70;;
11655;SDS011;5884;43.618;1.438;2023-07-31T17:51:12;8.77;;;4.97;;
11655;SDS011;5884;43.618;1.438;2023-07-31T17:53:40;6.80;;;5.00;;
11655;SDS011;5884;43.618;1.438;2023-07-31T17:56:07;8.55;;;4.95;;
11655;SDS011;5884;43.618;1.438;2023-07-31T17:58:35;10.13;;;5.78;;
11655;SDS011;5884;43.618;1.438;2023-07-31T18:01:02;8.77;;;5.18;;
11655;SDS011;5884;43.618;1.438;2023-07-31T18:03:29;7.93;;;5.30;;
11655;SDS011;5884;43.618;1.438;2023-07-31T18:05:58;7.78;;;4.82;;
11655;SDS011;5884;43.618;1.438;2023-07-31T18:08:25;7.93;;;4.90;;
11655;SDS011;5884;43.618;1.438;2023-07-31T18:10:53;7.53;;;4.82;;
11655;SDS011;5884;43.618;1.438;2023-07-31T18:13:20;5.90;;;4.53;;
11655;SDS011;5884;43.618;1.438;2023-07-31T18:15:47;6.60;;;4.65;;
11655;SDS011;5884;43.618;1.438;2023-07-31T18:18:15;6.75;;;4.70;;
11655;SDS011;5884;43.618;1.438;2023-07-31T18:20:42;7.82;;;4.45;;
11655;SDS011;5884;43.618;1.438;2023-07-31T18:23:11;7.68;;;4.30;;
11655;SDS011;5884;43.618;1.438;2023-07-31T18:25:39;9.23;;;4.93;;
11655;SDS011;5884;43.618;1.438;2023-07-31T18:28:07;9.57;;;5.53;;
11655;SDS011;5884;43.618;1.438;2023-07-31T18:30:34;9.70;;;5.40;;
11655;SDS011;5884;43.618;1.438;2023-07-31T18:33:01;6.97;;;5.00;;
11655;SDS011;5884;43.618;1.438;2023-07-31T18:35:29;7.63;;;5.17;;
11655;SDS011;5884;43.618;1.438;2023-07-31T18:37:56;6.28;;;5.07;;
11655;SDS011;5884;43.618;1.438;2023-07-31T18:40:24;6.20;;;4.80;;
11655;SDS011;5884;43.618;1.438;2023-07-31T18:42:52;7.13;;;4.90;;
11655;SDS011;5884;43.618;1.438;2023-07-31T18:45:20;7.97;;;5.10;;
11655;SDS011;5884;43.618;1.438;2023-07-31T18:47:47;8.03;;;5.13;;
11655;SDS011;5884;43.618;1.438;2023-07-31T18:50:14;6.40;;;5.00;;
11655;SDS011;5884;43.618;1.438;2023-07-31T18:52:42;7.67;;;4.90;;
11655;SDS011;5884;43.618;1.438;2023-07-31T18:55:09;7.23;;;4.93;;
11655;SDS011;5884;43.618;1.438;2023-07-31T18:57:38;8.90;;;5.17;;
11655;SDS011;5884;43.618;1.438;2023-07-31T19:00:05;8.23;;;5.10;;
11655;SDS011;5884;43.618;1.438;2023-07-31T19:02:34;6.83;;;5.13;;
11655;SDS011;5884;43.618;1.438;2023-07-31T19:05:01;8.27;;;4.57;;
11655;SDS011;5884;43.618;1.438;2023-07-31T19:07:29;7.77;;;4.87;;
11655;SDS011;5884;43.618;1.438;2023-07-31T19:09:56;6.90;;;5.00;;
11655;SDS011;5884;43.618;1.438;2023-07-31T19:12:24;6.97;;;4.57;;
11655;SDS011;5884;43.618;1.438;2023-07-31T19:14:53;7.87;;;4.73;;
11655;SDS011;5884;43.618;1.438;2023-07-31T19:17:20;6.27;;;4.77;;
11655;SDS011;5884;43.618;1.438;2023-07-31T19:19:48;9.43;;;5.07;;
11655;SDS011;5884;43.618;1.438;2023-07-31T19:22:15;9.03;;;5.13;;
11655;SDS011;5884;43.618;1.438;2023-07-31T19:24:42;7.77;;;4.60;;
11655;SDS011;5884;43.618;1.438;2023-07-31T19:27:09;9.97;;;5.10;;
11655;SDS011;5884;43.618;1.438;2023-07-31T19:29:37;8.60;;;4.73;;
11655;SDS011;5884;43.618;1.438;2023-07-31T19:32:06;6.70;;;4.23;;
11655;SDS011;5884;43.618;1.438;2023-07-31T19:34:33;6.83;;;4.80;;
11655;SDS011;5884;43.618;1.438;2023-07-31T19:37:00;9.57;;;5.50;;
11655;SDS011;5884;43.618;1.438;2023-07-31T19:39:27;8.07;;;4.87;;
11655;SDS011;5884;43.618;1.438;2023-07-31T19:41:55;8.13;;;3.97;;
11655;SDS011;5884;43.618;1.438;2023-07-31T19:44:22;8.57;;;4.20;;
11655;SDS011;5884;43.618;1.438;2023-07-31T19:46:49;7.27;;;4.43;;
11655;SDS011;5884;43.618;1.438;2023-07-31T19:49:18;8.07;;;4.23;;
11655;SDS011;5884;43.618;1.438;2023-07-31T19:51:45;7.70;;;4.37;;
11655;SDS011;5884;43.618;1.438;2023-07-31T19:54:13;8.47;;;5.03;;